메인 페이지
METAR-TAF:

METAR-TAF

공항 :

테구시갈파, 온두라스

위도: 14-03N, 경도: 087-13W, 고도: 994m

현재 날씨관측

예보는 42분 전, 04:00시(UTC)에 발표되었습니다.
12kt
온도 18°C
습도 83%
기압 1021 hPa
시정 10km 이상
고도 1400ft 상공 구름 조금
고도 2600ft 상공 구름 많음

METAR: MHTG 200400Z 36012KT 9999 FEW014 BKN026 18/15 Q1021 A3015 NOSIG

시각: 22:42 (04:42 UTC)

예보

예보는 6 시간 17분 전, 22:25시(UTC)에 발표되었습니다.
예보 대상 시간: 20일 00시부터 20일 24시까지 (UTC)
8kt
시정 10km 이상
고도 1200ft 상공 구름 조금
고도 2500ft 상공 구름 많음
전환 중
20일 07시부터 20일 09시까지 (UTC)
고도 800ft 상공 구름 조금
고도 2200ft 상공 구름 많음
전환 중
20일 14시부터 20일 16시까지 (UTC)
동북동10kt
고도 1600ft 상공 구름 조금
고도 2800ft 상공 구름 보통
확률 30%
20일 21시부터 20일 24시까지 (UTC)
시정: 7000m
고도 1400ft 상공 구름 조금
고도 2600ft 상공 구름 많음
시계 내 소나기

TAF: MHTG 192225Z 2000/2024 36008KT 9999 FEW012 BKN025 TX24/1920Z TN15/2012Z BECMG 2007/2009 FEW008 BKN022 BECMG 2014/2016 06010KT FEW016 SCT028 PROB30 2021/2024 7000 VCSH FEW014 BKN026

4,000개 이상의 공항 관측 자료 및 예보 (METAR 및 TAF 보고).

지도상에서 검색 가능한 기상관측소가 노란 점과 빨간 점으로 표시되어 있습니다.

기상관측소 명을 보려면 표시 위로 마우스를 이동하세요.

날씨 관측과 예보를 보려면 클릭하세요.

지도 변경 : 확대하려면 엑스 표시가 있는 녹색 버튼, 축소하려면 빼기 표시가 있는 녹색 버튼, 다음 페이지의 지도를 보려면 녹색 화살표를 클릭하세요.


METAR-TAF: